createdAt,value
2022-12-15T00:00:23.990Z,17.00
2022-12-15T00:03:09.978Z,16.70
2022-12-15T00:05:55.844Z,17.10
2022-12-15T00:08:41.297Z,16.90
2022-12-15T00:11:26.636Z,16.90
2022-12-15T00:14:13.820Z,16.60
2022-12-15T00:16:59.356Z,17.00
2022-12-15T00:19:45.150Z,16.60
2022-12-15T00:22:31.070Z,17.00
2022-12-15T00:25:17.953Z,16.70
2022-12-15T00:28:03.317Z,16.90
2022-12-15T00:30:50.484Z,16.60
2022-12-15T00:33:36.324Z,16.60
2022-12-15T00:36:22.048Z,16.50
2022-12-15T00:38:50.088Z,16.40
2022-12-15T00:41:19.348Z,16.70
2022-12-15T00:43:47.881Z,16.30
2022-12-15T00:46:34.981Z,16.40
2022-12-15T00:49:03.376Z,16.70
2022-12-15T00:51:49.144Z,16.80
2022-12-15T00:54:34.624Z,16.20
2022-12-15T00:57:20.318Z,16.20
2022-12-15T01:00:06.030Z,16.50
2022-12-15T01:02:53.276Z,16.50
2022-12-15T01:05:39.063Z,16.20
2022-12-15T01:08:24.502Z,16.30
2022-12-15T01:11:10.039Z,16.30
2022-12-15T01:13:55.520Z,16.30
2022-12-15T01:16:41.167Z,16.40
2022-12-15T01:19:28.722Z,16.60
2022-12-15T01:21:56.727Z,16.50
2022-12-15T01:24:24.794Z,16.40
2022-12-15T01:26:52.796Z,16.30
2022-12-15T01:29:20.795Z,16.50
2022-12-15T01:31:49.609Z,16.50
2022-12-15T01:34:22.498Z,16.50
2022-12-15T01:36:50.536Z,16.40
2022-12-15T01:39:18.582Z,16.30
2022-12-15T01:41:45.619Z,16.60
2022-12-15T01:44:19.669Z,16.10
2022-12-15T01:46:50.530Z,16.60
2022-12-15T01:49:27.342Z,16.20
2022-12-15T01:52:00.214Z,16.60
2022-12-15T01:54:32.830Z,16.50
2022-12-15T01:57:06.219Z,16.30
2022-12-15T01:59:38.660Z,16.60
2022-12-15T02:02:07.116Z,16.40
2022-12-15T02:04:37.735Z,16.50
2022-12-15T02:07:05.746Z,16.30
2022-12-15T02:09:33.789Z,16.60
2022-12-15T02:12:09.857Z,16.80
2022-12-15T02:14:57.763Z,16.20
2022-12-15T02:17:36.716Z,16.70
2022-12-15T02:20:52.345Z,16.50
2022-12-15T02:24:08.189Z,16.60
2022-12-15T02:27:12.530Z,16.60
2022-12-15T02:30:19.975Z,16.40
2022-12-15T02:33:09.374Z,16.50
2022-12-15T02:35:57.503Z,16.40
2022-12-15T02:38:35.775Z,16.60
2022-12-15T02:41:06.427Z,16.30
2022-12-15T02:43:39.808Z,16.40
2022-12-15T02:46:24.301Z,16.60
2022-12-15T02:49:04.233Z,16.70
2022-12-15T02:51:48.188Z,16.30
2022-12-15T02:54:39.256Z,16.60
2022-12-15T02:57:16.306Z,16.50
2022-12-15T02:59:55.288Z,16.40
2022-12-15T03:02:28.927Z,16.60
2022-12-15T03:04:57.358Z,16.60
2022-12-15T03:07:27.673Z,16.50
2022-12-15T03:09:57.261Z,16.00
2022-12-15T03:12:25.335Z,16.00
2022-12-15T03:14:53.336Z,16.50
2022-12-15T03:17:21.413Z,16.40
2022-12-15T03:19:50.841Z,16.20
2022-12-15T03:22:18.882Z,16.40
2022-12-15T03:24:46.864Z,16.50
2022-12-15T03:27:14.961Z,16.50
2022-12-15T03:29:42.967Z,16.00
2022-12-15T03:32:11.077Z,15.90
2022-12-15T03:34:39.108Z,16.50
2022-12-15T03:37:09.129Z,16.40
2022-12-15T03:39:37.093Z,16.40
2022-12-15T03:42:05.363Z,16.20
2022-12-15T03:44:33.409Z,16.20
2022-12-15T03:47:03.601Z,16.30
2022-12-15T03:49:31.982Z,16.30
2022-12-15T03:51:59.955Z,16.50
2022-12-15T03:54:29.324Z,16.40
2022-12-15T03:56:57.303Z,16.30
2022-12-15T03:59:25.240Z,16.30
2022-12-15T04:01:53.385Z,16.20
2022-12-15T04:04:21.469Z,16.30
2022-12-15T04:06:49.432Z,16.40
2022-12-15T04:09:18.397Z,16.50
2022-12-15T04:11:47.732Z,16.50
2022-12-15T04:14:15.712Z,16.30
2022-12-15T04:16:43.810Z,16.20
2022-12-15T04:19:29.758Z,16.50
2022-12-15T04:21:58.067Z,16.50
2022-12-15T04:24:43.572Z,16.50
2022-12-15T04:27:30.525Z,16.50
2022-12-15T04:30:15.951Z,16.40
2022-12-15T04:33:01.751Z,16.30
2022-12-15T04:35:49.913Z,16.00
2022-12-15T04:38:35.597Z,16.20
2022-12-15T04:41:21.503Z,16.40
2022-12-15T04:44:08.502Z,16.40
2022-12-15T04:46:54.181Z,16.20
2022-12-15T04:49:39.743Z,16.10
2022-12-15T04:52:25.289Z,16.30
2022-12-15T04:55:10.894Z,16.20
2022-12-15T04:57:56.449Z,16.20
2022-12-15T05:00:43.287Z,16.40
2022-12-15T05:03:28.688Z,15.90
2022-12-15T05:06:16.268Z,16.20
2022-12-15T05:09:01.764Z,15.90
2022-12-15T05:11:47.764Z,15.90
2022-12-15T05:14:33.330Z,16.20
2022-12-15T05:17:20.520Z,16.40
2022-12-15T05:20:06.415Z,16.20
2022-12-15T05:22:52.402Z,16.20
2022-12-15T05:25:38.222Z,16.40
2022-12-15T05:28:25.407Z,16.20
2022-12-15T05:31:11.068Z,16.30
2022-12-15T05:33:40.387Z,16.60
2022-12-15T05:36:09.494Z,16.80
2022-12-15T05:38:37.484Z,16.50
2022-12-15T05:41:05.624Z,16.30
2022-12-15T05:43:34.306Z,16.50
2022-12-15T05:46:04.952Z,16.20
2022-12-15T05:48:33.069Z,16.70
2022-12-15T05:51:06.193Z,16.40
2022-12-15T05:53:34.507Z,16.20
2022-12-15T05:56:03.556Z,16.60
2022-12-15T05:58:31.734Z,16.60
2022-12-15T06:01:05.944Z,16.60
2022-12-15T06:03:34.819Z,16.30
2022-12-15T06:06:05.018Z,16.60
2022-12-15T06:08:35.740Z,16.30
2022-12-15T06:11:04.058Z,16.90
2022-12-15T06:13:35.445Z,16.80
2022-12-15T06:16:06.717Z,16.50
2022-12-15T06:18:37.336Z,16.40
2022-12-15T06:21:09.139Z,16.30
2022-12-15T06:23:38.128Z,16.50
2022-12-15T06:26:12.016Z,16.30
2022-12-15T06:28:40.056Z,16.50
2022-12-15T06:31:10.486Z,16.70
2022-12-15T06:33:39.696Z,16.60
2022-12-15T06:36:12.149Z,16.70
2022-12-15T06:38:43.327Z,16.90
2022-12-15T06:41:13.957Z,16.60
2022-12-15T06:43:42.886Z,16.60
2022-12-15T06:46:11.351Z,16.80
2022-12-15T06:48:39.821Z,16.40
2022-12-15T06:51:15.089Z,16.50
2022-12-15T06:53:48.597Z,16.50
2022-12-15T06:56:22.452Z,16.40
2022-12-15T06:58:54.727Z,16.30
2022-12-15T07:01:25.204Z,16.60
2022-12-15T07:03:54.218Z,16.60
2022-12-15T07:06:24.075Z,16.40
2022-12-15T07:08:56.346Z,16.50
2022-12-15T07:11:24.702Z,16.50
2022-12-15T07:13:53.955Z,16.30
2022-12-15T07:16:24.717Z,16.50
2022-12-15T07:18:52.889Z,16.30
2022-12-15T07:21:20.949Z,16.20
2022-12-15T07:23:55.671Z,16.50
2022-12-15T07:26:24.672Z,16.20
2022-12-15T07:28:53.206Z,16.50
2022-12-15T07:31:21.372Z,16.20
2022-12-15T07:33:49.479Z,16.20
2022-12-15T07:36:18.330Z,16.30
2022-12-15T07:38:50.863Z,16.60
2022-12-15T07:41:21.321Z,16.30
2022-12-15T07:43:49.707Z,16.20
2022-12-15T07:46:18.241Z,16.40
2022-12-15T07:48:50.479Z,16.80
2022-12-15T07:51:21.048Z,16.30
2022-12-15T07:53:51.220Z,16.30
2022-12-15T07:56:21.437Z,16.60
2022-12-15T07:58:50.055Z,16.50
2022-12-15T08:01:19.416Z,16.70
2022-12-15T08:03:48.384Z,16.40
2022-12-15T08:06:17.652Z,16.50
2022-12-15T08:08:50.463Z,16.60
2022-12-15T08:11:24.924Z,16.90
2022-12-15T08:14:03.036Z,16.40
2022-12-15T08:16:34.848Z,16.40
2022-12-15T08:19:05.208Z,16.20
2022-12-15T08:21:34.147Z,16.80
2022-12-15T08:24:03.305Z,16.60
2022-12-15T08:26:33.033Z,16.30
2022-12-15T08:29:40.481Z,16.20
2022-12-15T08:31:53.173Z,16.30
2022-12-15T08:34:21.715Z,16.30
2022-12-15T08:36:50.132Z,16.50
2022-12-15T08:39:18.364Z,16.70
2022-12-15T08:41:48.391Z,16.50
2022-12-15T08:44:17.062Z,17.00
2022-12-15T08:46:45.413Z,16.70
2022-12-15T08:49:18.060Z,16.70
2022-12-15T08:51:49.962Z,16.80
2022-12-15T08:54:21.397Z,16.80
2022-12-15T08:56:51.078Z,16.90
2022-12-15T08:59:19.775Z,17.10
2022-12-15T09:01:48.149Z,17.10
2022-12-15T09:04:16.580Z,17.00
2022-12-15T09:06:50.574Z,17.10
2022-12-15T09:09:20.117Z,17.20
2022-12-15T09:11:49.754Z,17.00
2022-12-15T09:14:21.687Z,17.20
2022-12-15T09:16:53.809Z,17.10
2022-12-15T09:19:21.951Z,17.00
2022-12-15T09:21:50.009Z,17.10
2022-12-15T09:24:28.730Z,16.90
2022-12-15T09:27:03.010Z,17.20
2022-12-15T09:29:31.025Z,16.90
2022-12-15T09:31:59.441Z,17.20
2022-12-15T09:34:27.510Z,17.20
2022-12-15T09:36:56.672Z,16.90
2022-12-15T09:39:24.713Z,17.30
2022-12-15T09:41:57.035Z,17.20
2022-12-15T09:44:29.076Z,17.10
2022-12-15T09:47:09.291Z,17.30
2022-12-15T09:49:54.118Z,17.60
2022-12-15T09:52:27.295Z,17.50
2022-12-15T09:54:55.753Z,17.60
2022-12-15T09:57:34.693Z,17.10
2022-12-15T10:00:21.456Z,17.20
2022-12-15T10:03:22.997Z,17.60
2022-12-15T10:06:15.975Z,17.00
2022-12-15T10:08:50.528Z,17.20
2022-12-15T10:11:27.327Z,17.30
2022-12-15T10:14:00.771Z,17.20
2022-12-15T10:16:36.031Z,17.20
2022-12-15T10:19:09.997Z,17.60
2022-12-15T10:21:38.236Z,17.40
2022-12-15T10:25:00.368Z,17.60
2022-12-15T10:27:35.992Z,17.60
2022-12-15T10:30:07.215Z,17.60
2022-12-15T10:32:51.874Z,17.60
2022-12-15T10:35:27.548Z,17.60
2022-12-15T10:37:59.793Z,18.20
2022-12-15T10:40:50.538Z,17.90
2022-12-15T10:43:37.547Z,18.00
2022-12-15T10:46:14.495Z,18.00
2022-12-15T10:48:48.681Z,18.60
2022-12-15T10:51:38.423Z,18.10
2022-12-15T10:54:13.831Z,18.50
2022-12-15T10:56:50.721Z,18.30
2022-12-15T10:59:30.784Z,18.30
2022-12-15T11:02:29.475Z,18.30
2022-12-15T11:05:01.216Z,18.20
2022-12-15T11:07:36.379Z,17.80
2022-12-15T11:10:18.730Z,18.20
2022-12-15T11:12:58.958Z,18.10
2022-12-15T11:18:43.801Z,17.80
2022-12-15T11:21:21.503Z,17.70
2022-12-15T11:24:00.236Z,17.90
2022-12-15T11:26:44.724Z,18.00
2022-12-15T11:29:25.743Z,18.10
2022-12-15T11:31:55.474Z,18.00
2022-12-15T11:34:27.987Z,18.00
2022-12-15T11:37:11.703Z,17.60
2022-12-15T11:39:53.943Z,18.00
2022-12-15T11:42:45.287Z,17.80
2022-12-15T11:45:22.324Z,17.90
2022-12-15T11:47:53.879Z,17.90
2022-12-15T11:50:31.158Z,17.90
2022-12-15T11:53:22.168Z,18.40
2022-12-15T11:56:00.871Z,18.40
2022-12-15T11:58:56.296Z,18.30
2022-12-15T12:01:55.446Z,18.40
2022-12-15T12:04:28.366Z,18.10
2022-12-15T12:07:12.207Z,18.50
2022-12-15T12:10:01.288Z,18.50
2022-12-15T12:12:34.996Z,18.50
2022-12-15T12:15:26.097Z,18.60
2022-12-15T12:17:56.876Z,18.60
2022-12-15T12:20:34.785Z,18.70
2022-12-15T12:23:07.208Z,18.80
2022-12-15T12:25:44.595Z,18.70
2022-12-15T12:28:19.190Z,18.40
2022-12-15T12:33:44.951Z,18.80
2022-12-15T12:36:15.936Z,18.90
2022-12-15T12:38:50.940Z,18.80
2022-12-15T12:41:35.568Z,19.10
2022-12-15T12:44:13.865Z,19.10
2022-12-15T12:49:39.424Z,19.00
2022-12-15T12:52:22.088Z,19.10
2022-12-15T12:54:59.141Z,19.30
2022-12-15T12:57:36.577Z,19.60
2022-12-15T13:00:20.185Z,19.50
2022-12-15T13:03:21.053Z,19.60
2022-12-15T13:05:51.791Z,19.50
2022-12-15T13:08:51.208Z,19.70
2022-12-15T13:12:10.388Z,19.60
2022-12-15T13:14:51.993Z,19.70
2022-12-15T13:17:32.146Z,19.60
2022-12-15T13:20:23.438Z,19.80
2022-12-15T13:22:52.108Z,19.80
2022-12-15T13:25:41.329Z,19.80
2022-12-15T13:28:46.036Z,19.50
2022-12-15T13:31:33.423Z,20.00
2022-12-15T13:34:27.688Z,19.70
2022-12-15T13:37:03.685Z,19.70
2022-12-15T13:39:55.832Z,19.70
2022-12-15T13:42:35.840Z,19.70
2022-12-15T13:45:39.666Z,19.70
2022-12-15T13:48:35.361Z,19.90
2022-12-15T13:51:13.416Z,19.60
2022-12-15T13:53:51.508Z,20.10
2022-12-15T13:56:42.524Z,19.90
2022-12-15T13:59:23.680Z,19.60
2022-12-15T14:01:53.770Z,19.70
2022-12-15T14:04:24.039Z,19.60
2022-12-15T14:06:55.794Z,19.90
2022-12-15T14:09:29.922Z,20.10
2022-12-15T14:11:59.106Z,19.80
2022-12-15T14:14:30.705Z,20.00
2022-12-15T14:17:02.074Z,20.20
2022-12-15T14:19:40.984Z,19.80
2022-12-15T14:22:27.653Z,20.00
2022-12-15T14:25:03.433Z,19.70
2022-12-15T14:27:34.002Z,20.20
2022-12-15T14:30:22.741Z,19.80
2022-12-15T14:32:54.764Z,19.80
2022-12-15T14:35:30.526Z,20.00
2022-12-15T14:38:01.684Z,20.00
2022-12-15T14:40:30.957Z,19.90
2022-12-15T14:42:59.164Z,20.10
2022-12-15T14:45:30.726Z,19.90
2022-12-15T14:50:51.861Z,19.70
2022-12-15T14:53:22.264Z,19.80
2022-12-15T14:55:51.497Z,19.70
2022-12-15T14:58:35.847Z,19.50
2022-12-15T15:01:07.197Z,19.70
2022-12-15T15:03:09.675Z,19.10
2022-12-15T15:03:10.971Z,19.10
2022-12-15T15:03:40.760Z,19.50
2022-12-15T15:06:19.692Z,19.50
2022-12-15T15:08:50.336Z,19.60
2022-12-15T15:11:29.277Z,19.70
2022-12-15T15:14:00.439Z,19.60
2022-12-15T15:16:29.218Z,19.10
2022-12-15T15:18:58.268Z,19.00
2022-12-15T15:21:30.955Z,19.00
2022-12-15T15:24:01.553Z,18.90
2022-12-15T15:26:30.861Z,19.00
2022-12-15T15:28:59.339Z,18.80
2022-12-15T15:31:40.300Z,18.60
2022-12-15T15:34:09.197Z,18.70
2022-12-15T15:36:40.122Z,18.70
2022-12-15T15:39:15.123Z,18.60
2022-12-15T15:41:43.327Z,18.50
2022-12-15T15:44:15.489Z,18.40
2022-12-15T15:46:49.599Z,18.10
2022-12-15T15:49:21.212Z,18.10
2022-12-15T15:51:50.676Z,18.40
2022-12-15T15:54:23.991Z,18.50
2022-12-15T15:56:52.105Z,18.10
2022-12-15T15:59:22.241Z,17.90
2022-12-15T16:01:55.810Z,18.20
2022-12-15T16:04:24.500Z,18.00
2022-12-15T16:06:54.382Z,18.40
2022-12-15T16:09:23.593Z,18.00
2022-12-15T16:11:51.754Z,18.10
2022-12-15T16:14:19.842Z,18.00
2022-12-15T16:16:48.010Z,18.10
2022-12-15T16:19:16.039Z,18.10
2022-12-15T16:21:44.571Z,17.90
2022-12-15T16:24:18.794Z,18.20
2022-12-15T16:26:51.213Z,17.90
2022-12-15T16:29:21.728Z,17.80
2022-12-15T16:31:50.103Z,17.80
2022-12-15T16:34:19.165Z,18.00
2022-12-15T16:36:47.722Z,17.90
2022-12-15T16:39:30.469Z,18.00
2022-12-15T16:41:58.976Z,17.90
2022-12-15T16:44:29.158Z,17.90
2022-12-15T16:46:58.708Z,17.80
2022-12-15T16:49:27.534Z,17.70
2022-12-15T16:51:55.783Z,17.60
2022-12-15T16:54:27.577Z,18.00
2022-12-15T16:56:58.183Z,17.80
2022-12-15T16:59:35.901Z,18.00
2022-12-15T17:02:25.108Z,17.80
2022-12-15T17:04:55.096Z,17.90
2022-12-15T17:07:23.473Z,17.80
2022-12-15T17:09:52.842Z,17.60
2022-12-15T17:12:20.886Z,17.60
2022-12-15T17:14:48.931Z,17.80
2022-12-15T17:17:19.310Z,17.70
2022-12-15T17:20:20.017Z,17.70
2022-12-15T17:22:37.798Z,17.40
2022-12-15T17:25:14.383Z,17.60
2022-12-15T17:27:42.467Z,17.50
2022-12-15T17:30:15.802Z,17.70
2022-12-15T17:32:44.283Z,17.50
2022-12-15T17:35:12.903Z,17.60
2022-12-15T17:37:41.769Z,17.60
2022-12-15T17:40:20.985Z,17.80
2022-12-15T17:42:49.971Z,17.60
2022-12-15T17:45:21.624Z,17.60
2022-12-15T17:47:50.234Z,17.60
2022-12-15T17:50:19.234Z,17.70
2022-12-15T17:52:49.438Z,17.50
2022-12-15T17:55:34.851Z,17.50
2022-12-15T17:58:15.470Z,17.60
2022-12-15T18:00:49.069Z,17.60
2022-12-15T18:03:17.842Z,17.60
2022-12-15T18:05:47.579Z,17.80
2022-12-15T18:08:18.604Z,17.70
2022-12-15T18:10:51.370Z,17.90
2022-12-15T18:13:22.015Z,17.60
2022-12-15T18:15:51.397Z,17.70
2022-12-15T18:18:22.152Z,17.60
2022-12-15T18:20:51.758Z,17.40
2022-12-15T18:23:25.954Z,17.50
2022-12-15T18:26:01.157Z,17.80
2022-12-15T18:28:34.402Z,17.70
2022-12-15T18:31:10.681Z,17.60
2022-12-15T18:33:38.790Z,17.60
2022-12-15T18:36:07.643Z,17.60
2022-12-15T18:38:35.718Z,17.50
2022-12-15T18:41:05.703Z,17.50
2022-12-15T18:43:35.543Z,17.70
2022-12-15T18:46:03.721Z,17.60
2022-12-15T18:48:34.930Z,17.70
2022-12-15T18:51:12.934Z,17.50
2022-12-15T18:53:41.729Z,17.60
2022-12-15T18:56:14.769Z,17.90
2022-12-15T18:58:43.578Z,17.70
2022-12-15T19:01:11.794Z,17.60
2022-12-15T19:03:40.952Z,17.70
2022-12-15T19:06:25.691Z,17.60
2022-12-15T19:08:54.323Z,17.60
2022-12-15T19:11:30.801Z,17.60
2022-12-15T19:14:00.181Z,17.50
2022-12-15T19:16:49.500Z,17.60
2022-12-15T19:19:35.304Z,17.80
2022-12-15T19:22:29.561Z,17.60
2022-12-15T19:24:58.745Z,17.50
2022-12-15T19:27:28.655Z,17.60
2022-12-15T19:29:56.754Z,17.40
2022-12-15T19:32:26.643Z,17.60
2022-12-15T19:34:54.625Z,17.20
2022-12-15T19:37:28.307Z,17.40
2022-12-15T19:39:57.377Z,17.40
2022-12-15T19:42:30.431Z,17.50
2022-12-15T19:44:58.533Z,17.50
2022-12-15T19:47:27.265Z,17.60
2022-12-15T19:49:55.270Z,17.50
2022-12-15T19:52:23.295Z,17.50
2022-12-15T19:54:51.753Z,17.70
2022-12-15T19:57:20.965Z,17.50
2022-12-15T19:59:50.381Z,17.70
2022-12-15T20:02:20.677Z,17.60
2022-12-15T20:04:49.725Z,17.60
2022-12-15T20:07:20.711Z,17.60
2022-12-15T20:09:48.790Z,17.60
2022-12-15T20:12:19.340Z,17.40
2022-12-15T20:14:47.979Z,17.30
2022-12-15T20:17:17.400Z,17.50
2022-12-15T20:19:45.573Z,17.60
2022-12-15T20:22:17.703Z,17.50
2022-12-15T20:24:46.871Z,17.50
2022-12-15T20:27:17.475Z,17.40
2022-12-15T20:29:46.236Z,17.50
2022-12-15T20:32:18.622Z,17.70
2022-12-15T20:34:46.845Z,17.70
2022-12-15T20:37:21.732Z,17.60
2022-12-15T20:39:55.515Z,17.60
2022-12-15T20:42:25.943Z,17.60
2022-12-15T20:44:54.442Z,17.50
2022-12-15T20:47:27.031Z,17.70
2022-12-15T20:49:56.401Z,17.50
2022-12-15T20:52:27.459Z,17.50
2022-12-15T20:54:56.367Z,17.80
2022-12-15T20:57:24.522Z,17.50
2022-12-15T20:59:52.687Z,17.60
2022-12-15T21:02:25.246Z,17.50
2022-12-15T21:04:53.539Z,17.70
2022-12-15T21:07:21.771Z,17.70
2022-12-15T21:09:49.815Z,17.60
2022-12-15T21:12:20.982Z,17.70
2022-12-15T21:14:49.838Z,17.70
2022-12-15T21:17:19.807Z,17.60
2022-12-15T21:19:49.960Z,17.60
2022-12-15T21:22:22.562Z,17.40
2022-12-15T21:24:53.201Z,17.60
2022-12-15T21:27:22.161Z,17.40
2022-12-15T21:29:52.920Z,17.60
2022-12-15T21:32:22.029Z,17.50
2022-12-15T21:34:51.772Z,17.50
2022-12-15T21:37:26.661Z,17.30
2022-12-15T21:39:55.711Z,17.60
2022-12-15T21:42:24.278Z,17.40
2022-12-15T21:44:52.494Z,17.30
2022-12-15T21:47:46.769Z,17.10
2022-12-15T21:50:15.773Z,17.50
2022-12-15T21:52:45.044Z,17.20
2022-12-15T21:55:16.363Z,17.20
2022-12-15T21:57:45.013Z,17.20
2022-12-15T22:00:16.725Z,17.00
2022-12-15T22:02:45.621Z,17.10
2022-12-15T22:05:21.442Z,17.10
2022-12-15T22:07:50.531Z,17.10
2022-12-15T22:10:20.254Z,17.00
2022-12-15T22:12:58.985Z,17.30
2022-12-15T22:15:29.705Z,17.10
2022-12-15T22:17:58.127Z,17.10
2022-12-15T22:20:27.544Z,17.00
2022-12-15T22:22:55.953Z,17.00
2022-12-15T22:25:26.592Z,16.90
2022-12-15T22:27:55.207Z,17.00
2022-12-15T22:30:27.166Z,16.90
2022-12-15T22:32:56.031Z,17.10
2022-12-15T22:35:28.231Z,16.80
2022-12-15T22:37:56.648Z,16.80
2022-12-15T22:40:26.812Z,17.20
2022-12-15T22:42:58.194Z,17.10
2022-12-15T22:45:26.606Z,17.10
2022-12-15T22:47:55.362Z,17.00
2022-12-15T22:50:26.381Z,17.00
2022-12-15T22:52:56.234Z,16.70
2022-12-15T22:55:25.499Z,16.40
2022-12-15T22:57:58.232Z,17.00
2022-12-15T23:00:26.819Z,17.00
2022-12-15T23:02:55.349Z,16.70
2022-12-15T23:05:23.648Z,16.70
2022-12-15T23:07:52.237Z,17.00
2022-12-15T23:10:42.083Z,17.00
2022-12-15T23:13:10.434Z,16.60
2022-12-15T23:15:58.766Z,16.50
2022-12-15T23:18:27.019Z,16.30
2022-12-15T23:20:55.650Z,16.60
2022-12-15T23:23:25.710Z,16.90
2022-12-15T23:25:55.874Z,16.60
2022-12-15T23:28:24.189Z,16.60
2022-12-15T23:30:54.189Z,16.50
2022-12-15T23:33:24.947Z,16.50
2022-12-15T23:35:54.909Z,16.30
2022-12-15T23:38:24.051Z,16.60
2022-12-15T23:40:56.233Z,16.80
2022-12-15T23:43:26.425Z,16.50
2022-12-15T23:45:59.332Z,16.40
2022-12-15T23:48:32.621Z,16.50
2022-12-15T23:51:06.703Z,16.30
2022-12-15T23:53:36.009Z,16.50
2022-12-15T23:56:12.252Z,16.30
2022-12-15T23:58:42.269Z,16.30
